Time;durP1;ratioP1;P1;durP2;ratioP2;P2;SDS_P1;SDS_P2;PMS_P1;PMS_P2;Temp;Humidity;BMP_temperature;BMP_pressure;BME280_temperature;BME280_humidity;BME280_pressure;Samples;Min_cycle;Max_cycle;Signal;HPM_P1;HPM_P2
2023/07/26 00:01:41;;;;;;;3.45;2.78;;;10.80;99.90;;;;;;5052562;28;20037;-69
2023/07/26 00:04:07;;;;;;;5.18;3.15;;;10.80;99.90;;;;;;5052625;28;20029;-69
2023/07/26 00:06:32;;;;;;;4.72;3.28;;;10.80;99.90;;;;;;5052627;28;20021;-68
2023/07/26 00:08:58;;;;;;;4.00;3.20;;;10.70;99.90;;;;;;5052540;28;20041;-68
2023/07/26 00:11:23;;;;;;;5.55;3.30;;;10.70;99.90;;;;;;5052821;28;20017;-68
2023/07/26 00:13:49;;;;;;;5.93;3.33;;;10.70;99.90;;;;;;5052579;28;20017;-69
2023/07/26 00:16:14;;;;;;;4.10;3.28;;;10.70;99.90;;;;;;5055554;28;20040;-69
2023/07/26 00:18:40;;;;;;;3.53;3.22;;;10.60;99.90;;;;;;5055962;28;20025;-69
2023/07/26 00:21:06;;;;;;;4.72;3.45;;;10.60;99.90;;;;;;5056120;28;20051;-69
2023/07/26 00:23:32;;;;;;;4.75;3.40;;;10.60;99.90;;;;;;5056078;28;20394;-69
2023/07/26 00:25:58;;;;;;;5.03;3.58;;;10.60;99.90;;;;;;5054886;28;20028;-69
2023/07/26 00:28:23;;;;;;;6.30;3.45;;;10.60;99.90;;;;;;5055919;28;20090;-69
2023/07/26 00:30:49;;;;;;;6.03;3.40;;;10.60;99.90;;;;;;5056007;28;20044;-69
2023/07/26 00:33:15;;;;;;;3.60;3.20;;;10.60;99.90;;;;;;5056204;28;20025;-69
2023/07/26 00:35:42;;;;;;;3.58;3.05;;;10.70;99.90;;;;;;5054628;28;20083;-70
2023/07/26 00:38:07;;;;;;;7.38;3.63;;;10.70;99.90;;;;;;5054376;28;20025;-69
2023/07/26 00:40:33;;;;;;;5.57;3.70;;;10.70;99.90;;;;;;5055762;28;20079;-69
2023/07/26 00:42:58;;;;;;;4.15;3.75;;;10.80;99.90;;;;;;5055735;28;20029;-69
2023/07/26 00:45:26;;;;;;;3.55;3.20;;;10.80;99.90;;;;;;5055895;28;20033;-69
2023/07/26 00:47:52;;;;;;;4.88;3.33;;;10.80;99.90;;;;;;5055568;28;20079;-70
2023/07/26 00:50:19;;;;;;;5.97;4.30;;;10.90;99.90;;;;;;5055602;28;20033;-70
2023/07/26 00:52:46;;;;;;;6.50;5.20;;;10.80;99.90;;;;;;5055918;28;20100;-70
2023/07/26 00:55:12;;;;;;;7.40;4.70;;;11.00;99.90;;;;;;5055468;28;20025;-70
2023/07/26 00:57:38;;;;;;;9.30;4.60;;;11.10;99.90;;;;;;5055381;28;20029;-71
2023/07/26 01:00:05;;;;;;;6.00;4.45;;;11.20;99.90;;;;;;5055329;28;20033;-70
2023/07/26 01:02:30;;;;;;;10.45;4.57;;;11.30;99.90;;;;;;5055263;28;20040;-70
2023/07/26 01:04:56;;;;;;;8.73;4.72;;;11.40;99.90;;;;;;5055347;28;20029;-70
2023/07/26 01:07:48;;;;;;;7.25;4.60;;;11.40;99.90;;;;;;5054982;28;20057;-70
2023/07/26 01:10:24;;;;;;;7.53;4.78;;;11.50;99.90;;;;;;5055148;28;20017;-70
2023/07/26 01:13:15;;;;;;;5.95;4.35;;;11.50;99.90;;;;;;5053903;28;20060;-70
2023/07/26 01:15:41;;;;;;;7.82;4.75;;;11.50;99.90;;;;;;5054052;28;20021;-70
2023/07/26 01:18:10;;;;;;;9.88;4.97;;;11.50;99.90;;;;;;5055266;28;20483;-70
2023/07/26 01:20:36;;;;;;;7.65;4.85;;;11.70;99.90;;;;;;5055235;28;20501;-68
2023/07/26 01:23:01;;;;;;;7.55;4.68;;;11.60;99.90;;;;;;5055156;28;20072;-68
2023/07/26 01:25:27;;;;;;;6.53;4.60;;;11.60;99.90;;;;;;5054944;28;20029;-70
2023/07/26 01:27:52;;;;;;;8.70;4.78;;;11.70;99.90;;;;;;5055044;28;20053;-70
2023/07/26 01:30:19;;;;;;;8.13;5.05;;;11.70;99.90;;;;;;5055082;28;20112;-70
2023/07/26 01:32:49;;;;;;;8.38;5.47;;;11.70;99.90;;;;;;5054979;28;20074;-70
2023/07/26 01:35:15;;;;;;;9.20;5.05;;;11.70;99.90;;;;;;5053702;28;20477;-70
2023/07/26 01:37:41;;;;;;;12.40;5.32;;;11.80;99.90;;;;;;5054631;28;20033;-70
2023/07/26 01:40:08;;;;;;;5.47;4.75;;;11.90;99.90;;;;;;5054838;28;20410;-71
2023/07/26 01:42:36;;;;;;;11.77;5.85;;;11.80;99.90;;;;;;5054726;28;20027;-70
2023/07/26 01:45:03;;;;;;;10.60;5.28;;;11.90;99.90;;;;;;5054774;28;20564;-70
2023/07/26 01:47:29;;;;;;;8.00;4.80;;;11.90;99.90;;;;;;5054623;28;20033;-71
2023/07/26 01:49:55;;;;;;;9.93;5.72;;;12.00;99.90;;;;;;5054675;28;20093;-71
2023/07/26 01:52:23;;;;;;;9.50;5.40;;;12.00;99.90;;;;;;5054624;28;20025;-70
2023/07/26 01:54:49;;;;;;;7.70;4.75;;;12.00;99.90;;;;;;5054309;28;20103;-70
2023/07/26 01:57:14;;;;;;;11.68;5.68;;;12.00;99.90;;;;;;5054441;28;20107;-71
2023/07/26 01:59:40;;;;;;;6.63;5.05;;;12.00;99.90;;;;;;5054433;28;20073;-71
2023/07/26 02:02:05;;;;;;;8.85;5.38;;;12.00;99.90;;;;;;5054399;28;20025;-70
2023/07/26 02:04:31;;;;;;;10.07;5.40;;;12.10;99.90;;;;;;5054164;28;20017;-70
2023/07/26 02:06:56;;;;;;;6.22;5.45;;;12.10;99.90;;;;;;5053972;28;20048;-70
2023/07/26 02:09:22;;;;;;;7.53;5.55;;;12.20;99.90;;;;;;5054086;28;20033;-70
2023/07/26 02:11:48;;;;;;;6.47;4.88;;;12.20;99.90;;;;;;5054242;28;20025;-69
2023/07/26 02:14:14;;;;;;;10.60;5.57;;;12.20;99.90;;;;;;5036517;28;20413;-69
2023/07/26 02:16:39;;;;;;;8.43;5.45;;;11.90;99.90;;;;;;5053860;28;20025;-70
2023/07/26 02:19:05;;;;;;;7.80;5.93;;;12.20;99.90;;;;;;5054075;28;20036;-69
2023/07/26 02:21:30;;;;;;;9.50;5.43;;;12.00;99.90;;;;;;5053830;28;20029;-69
2023/07/26 02:23:56;;;;;;;11.00;5.85;;;12.10;99.90;;;;;;5053989;28;20032;-70
2023/07/26 02:26:21;;;;;;;7.25;5.13;;;12.10;99.90;;;;;;5053850;28;20120;-70
2023/07/26 02:28:47;;;;;;;8.10;5.25;;;12.10;99.90;;;;;;5053763;28;20029;-70
2023/07/26 02:31:12;;;;;;;9.30;5.30;;;12.10;99.90;;;;;;5053464;28;20486;-69
2023/07/26 02:33:38;;;;;;;7.65;5.18;;;12.10;99.90;;;;;;5053624;28;20108;-70
2023/07/26 02:36:04;;;;;;;7.30;5.45;;;12.10;99.90;;;;;;5053831;28;20025;-69
2023/07/26 02:38:29;;;;;;;8.18;5.05;;;12.10;99.90;;;;;;5053345;28;20436;-69
2023/07/26 02:40:55;;;;;;;11.70;5.68;;;10.20;99.90;;;;;;5053561;28;20029;-69
2023/07/26 02:43:20;;;;;;;7.88;5.30;;;12.10;99.90;;;;;;5053614;28;20171;-70
2023/07/26 02:45:46;;;;;;;7.45;5.30;;;12.20;99.90;;;;;;5053544;28;20025;-70
2023/07/26 02:48:12;;;;;;;7.47;5.65;;;12.20;99.90;;;;;;5052147;28;20478;-69
2023/07/26 02:50:37;;;;;;;7.57;6.15;;;12.10;99.90;;;;;;5053523;28;20031;-69
2023/07/26 02:53:03;;;;;;;7.55;5.40;;;12.10;99.90;;;;;;5053388;28;20025;-69
2023/07/26 02:55:28;;;;;;;10.63;6.60;;;12.10;99.90;;;;;;5053296;28;20051;-70
2023/07/26 02:57:54;;;;;;;9.45;5.82;;;12.20;99.90;;;;;;5053332;28;20500;-69
2023/07/26 03:00:20;;;;;;;12.88;6.38;;;12.20;99.90;;;;;;5053312;28;20025;-69
2023/07/26 03:02:45;;;;;;;9.23;5.85;;;12.20;99.90;;;;;;5053362;28;20029;-69
2023/07/26 03:05:11;;;;;;;10.75;6.70;;;12.10;99.90;;;;;;5053370;28;20033;-70
2023/07/26 03:07:36;;;;;;;9.85;6.55;;;12.20;99.90;;;;;;5052963;28;20053;-70
2023/07/26 03:10:02;;;;;;;7.68;5.88;;;12.20;99.90;;;;;;5053141;28;20074;-69
2023/07/26 03:12:28;;;;;;;10.02;6.25;;;12.10;99.90;;;;;;5052889;28;20024;-69
2023/07/26 03:14:53;;;;;;;6.97;5.70;;;12.20;99.90;;;;;;5053173;28;20032;-69
2023/07/26 03:17:19;;;;;;;10.77;7.20;;;12.20;99.90;;;;;;5053173;28;20490;-69
2023/07/26 03:19:44;;;;;;;10.80;7.35;;;12.20;99.90;;;;;;5052853;28;20112;-69
2023/07/26 03:22:10;;;;;;;9.80;6.85;;;12.20;99.90;;;;;;5052985;28;20390;-69
2023/07/26 03:24:35;;;;;;;14.13;6.68;;;12.20;99.90;;;;;;5053024;28;20075;-69
2023/07/26 03:27:01;;;;;;;23.98;9.27;;;;;;;;;;5053014;28;20029;-69
2023/07/26 03:29:27;;;;;;;9.70;6.43;;;12.40;99.90;;;;;;5052822;28;20418;-69
2023/07/26 03:31:52;;;;;;;15.48;6.88;;;12.30;99.90;;;;;;5053044;28;20169;-69
2023/07/26 03:34:18;;;;;;;13.65;7.07;;;12.30;99.90;;;;;;5053102;28;20075;-70
2023/07/26 03:36:43;;;;;;;12.40;7.45;;;12.30;99.90;;;;;;5052863;28;20033;-69
2023/07/26 03:39:09;;;;;;;10.20;8.00;;;12.30;99.90;;;;;;5052834;28;20029;-70
2023/07/26 03:41:34;;;;;;;12.75;7.93;;;12.30;99.90;;;;;;5053030;28;20041;-70
2023/07/26 03:44:00;;;;;;;17.23;8.45;;;12.30;99.90;;;;;;5052809;28;20094;-70
2023/07/26 03:46:25;;;;;;;12.18;7.40;;;12.30;99.90;;;;;;5052987;28;20428;-69
2023/07/26 03:48:51;;;;;;;11.88;9.88;;;12.10;99.90;;;;;;5052958;28;20037;-70
2023/07/26 03:51:16;;;;;;;13.95;9.10;;;12.10;99.90;;;;;;5055936;28;20024;-71
2023/07/26 03:53:42;;;;;;;11.70;8.85;;;12.10;99.90;;;;;;5056572;28;20067;-70
2023/07/26 03:56:07;;;;;;;15.35;9.88;;;12.10;99.90;;;;;;5056817;28;20014;-70
2023/07/26 03:58:33;;;;;;;14.07;10.77;;;12.10;99.90;;;;;;5056591;28;20522;-70
2023/07/26 04:00:58;;;;;;;14.68;10.60;;;12.10;99.90;;;;;;5056516;28;20441;-70
2023/07/26 04:03:24;;;;;;;15.45;11.05;;;12.10;99.90;;;;;;5056698;28;20037;-70
2023/07/26 04:05:50;;;;;;;13.05;11.07;;;;;;;;;;5056640;28;20377;-70
2023/07/26 04:08:16;;;;;;;14.82;11.38;;;12.20;99.90;;;;;;5056085;28;20158;-70
2023/07/26 04:10:41;;;;;;;17.75;11.88;;;12.20;99.90;;;;;;5056495;28;20135;-70
2023/07/26 04:13:07;;;;;;;17.30;12.75;;;12.20;99.90;;;;;;5056430;28;20028;-70
2023/07/26 04:15:32;;;;;;;15.90;12.52;;;12.30;99.90;;;;;;5056251;28;20028;-70
2023/07/26 04:17:58;;;;;;;17.73;12.88;;;12.30;99.90;;;;;;5056392;28;20394;-70
2023/07/26 04:20:23;;;;;;;18.55;12.75;;;12.30;99.90;;;;;;5056398;28;20367;-70
2023/07/26 04:22:49;;;;;;;16.20;12.73;;;12.40;99.90;;;;;;5056147;28;20478;-70
2023/07/26 04:25:15;;;;;;;19.05;12.45;;;12.40;99.90;;;;;;5055963;28;20029;-70
2023/07/26 04:27:40;;;;;;;19.45;13.65;;;12.30;99.90;;;;;;5055951;28;20033;-70
2023/07/26 04:30:07;;;;;;;21.15;13.65;;;12.30;99.90;;;;;;5055936;28;20079;-70
2023/07/26 04:32:33;;;;;;;19.08;13.55;;;12.40;99.90;;;;;;5055907;28;20021;-70
2023/07/26 04:34:58;;;;;;;20.15;14.05;;;12.30;99.90;;;;;;5055892;28;20032;-70
2023/07/26 04:37:24;;;;;;;18.88;12.65;;;12.40;99.90;;;;;;5055877;28;20035;-70
2023/07/26 04:39:50;;;;;;;20.10;12.00;;;;;;;;;;5056074;28;20068;-70
2023/07/26 04:42:15;;;;;;;14.10;9.43;;;12.20;99.90;;;;;;5055660;28;20033;-70
2023/07/26 04:44:41;;;;;;;14.85;8.75;;;;;;;;;;5055637;28;20040;-70
2023/07/26 04:47:08;;;;;;;15.20;9.43;;;12.10;99.90;;;;;;5055862;28;20482;-70
2023/07/26 04:49:33;;;;;;;14.32;8.57;;;12.30;99.90;;;;;;5055314;28;20032;-70
2023/07/26 04:51:59;;;;;;;10.75;6.50;;;12.20;99.90;;;;;;5055746;28;20020;-70
2023/07/26 04:54:24;;;;;;;12.55;6.38;;;12.00;99.90;;;;;;5055515;28;20031;-70
2023/07/26 04:56:50;;;;;;;8.90;5.35;;;11.90;99.90;;;;;;5055678;28;20024;-70
2023/07/26 04:59:15;;;;;;;8.57;5.90;;;12.20;99.90;;;;;;5055346;28;20033;-70
2023/07/26 05:01:41;;;;;;;9.82;6.43;;;12.30;99.90;;;;;;5054938;28;20041;-70
2023/07/26 05:04:09;;;;;;;11.02;6.70;;;12.20;99.90;;;;;;5055320;28;20112;-70
2023/07/26 05:06:34;;;;;;;12.75;7.93;;;11.90;99.90;;;;;;5053894;28;20033;-69
2023/07/26 05:09:00;;;;;;;16.48;8.10;;;11.30;99.90;;;;;;5053897;28;20445;-70
2023/07/26 05:11:26;;;;;;;13.57;8.70;;;12.40;99.90;;;;;;5055350;28;20036;-70
2023/07/26 05:13:52;;;;;;;10.88;8.95;;;;;;;;;;5055393;28;20021;-69
2023/07/26 05:16:17;;;;;;;11.75;8.38;;;12.30;99.90;;;;;;5055165;28;20509;-70
2023/07/26 05:18:43;;;;;;;12.43;8.93;;;12.30;99.90;;;;;;5055004;28;20441;-70
2023/07/26 05:21:08;;;;;;;14.52;10.43;;;12.40;99.90;;;;;;5055150;28;20367;-70
2023/07/26 05:23:34;;;;;;;15.73;10.30;;;12.50;99.90;;;;;;5054944;28;20021;-70
2023/07/26 05:25:59;;;;;;;11.35;9.30;;;12.50;99.90;;;;;;5054731;28;20038;-70
2023/07/26 05:28:25;;;;;;;17.02;9.30;;;12.70;99.90;;;;;;5054851;28;20094;-70
2023/07/26 05:30:50;;;;;;;12.38;8.57;;;12.70;99.90;;;;;;5055053;28;20036;-70
2023/07/26 05:33:16;;;;;;;12.40;7.95;;;12.80;99.90;;;;;;5054986;28;20028;-70
2023/07/26 05:35:41;;;;;;;13.65;7.72;;;12.90;99.90;;;;;;5054896;28;20040;-70
2023/07/26 05:38:07;;;;;;;11.32;8.32;;;13.00;99.90;;;;;;5054849;28;20394;-70
2023/07/26 05:40:33;;;;;;;15.52;9.27;;;13.00;99.90;;;;;;5054655;28;20036;-70
2023/07/26 05:42:58;;;;;;;10.07;8.57;;;13.10;99.90;;;;;;5054850;28;20029;-70
2023/07/26 05:45:24;;;;;;;12.55;9.85;;;13.20;99.90;;;;;;5054770;28;20028;-69
2023/07/26 05:47:49;;;;;;;16.65;9.95;;;13.20;99.90;;;;;;5054485;28;20024;-69
2023/07/26 05:50:15;;;;;;;12.85;9.43;;;13.20;99.90;;;;;;5054425;28;20024;-70
2023/07/26 05:52:40;;;;;;;14.93;8.43;;;13.70;99.90;;;;;;5054659;28;20037;-70
2023/07/26 05:55:07;;;;;;;10.50;7.20;;;14.60;99.90;;;;;;5054576;28;20029;-70
2023/07/26 05:57:33;;;;;;;9.73;7.05;;;15.10;91.60;;;;;;5054328;28;20036;-70
2023/07/26 05:59:58;;;;;;;8.82;7.10;;;15.30;61.50;;;;;;5053221;28;20029;-71
2023/07/26 06:02:24;;;;;;;12.32;7.35;;;15.60;51.60;;;;;;5053472;28;20034;-70
2023/07/26 06:04:49;;;;;;;7.07;6.35;;;16.30;17.50;;;;;;5050889;28;20021;-70
2023/07/26 06:07:16;;;;;;;10.52;7.60;;;16.50;1.00;;;;;;5050057;28;20082;-71
2023/07/26 06:09:42;;;;;;;9.15;8.25;;;16.70;1.00;;;;;;5033299;28;20057;-66
2023/07/26 06:12:08;;;;;;;8.75;7.35;;;16.70;1.00;;;;;;5052110;28;20021;-66
2023/07/26 06:14:34;;;;;;;11.13;8.52;;;16.80;1.00;;;;;;5037848;28;20390;-66
2023/07/26 06:17:00;;;;;;;10.85;7.78;;;17.00;1.00;;;;;;5040677;28;20028;-67
2023/07/26 06:19:25;;;;;;;11.40;7.63;;;17.60;1.00;;;;;;5051748;28;20043;-66
2023/07/26 06:21:55;;;;;;;8.68;7.00;;;17.90;1.00;;;;;;5053816;28;20052;-65
2023/07/26 06:24:22;;;;;;;9.57;7.13;;;18.00;1.00;;;;;;5048032;28;20471;-71
2023/07/26 06:26:48;;;;;;;11.18;7.88;;;17.20;1.00;;;;;;5042192;28;20037;-70
2023/07/26 06:29:14;;;;;;;13.27;7.25;;;16.80;1.00;;;;;;5053234;28;20028;-70
2023/07/26 06:31:39;;;;;;;8.52;7.05;;;17.50;1.00;;;;;;5064981;28;20046;-69
2023/07/26 06:34:05;;;;;;;9.55;6.68;;;17.90;1.00;;;;;;5060431;28;20031;-71
2023/07/26 06:36:30;;;;;;;10.32;6.90;;;17.70;1.00;;;;;;5051987;28;20036;-72
2023/07/26 06:38:56;;;;;;;15.05;6.88;;;17.60;1.00;;;;;;5051743;28;20033;-71
2023/07/26 06:41:21;;;;;;;9.48;6.50;;;17.00;1.00;;;;;;5051446;28;20041;-69
2023/07/26 06:43:47;;;;;;;7.15;5.90;;;16.80;1.00;;;;;;5050380;28;20041;-69
2023/07/26 06:46:12;;;;;;;10.85;6.00;;;16.70;1.00;;;;;;5052095;28;20020;-72
2023/07/26 06:48:38;;;;;;;8.45;5.40;;;16.90;1.00;;;;;;5052014;28;20024;-71
2023/07/26 06:51:04;;;;;;;8.18;5.10;;;17.50;1.00;;;;;;5052805;28;20127;-70
2023/07/26 06:53:30;;;;;;;14.20;5.10;;;18.30;1.00;;;;;;5049795;28;20055;-70
2023/07/26 06:55:59;;;;;;;7.35;5.60;;;19.20;99.90;;;;;;5052498;28;20067;-70
2023/07/26 06:58:25;;;;;;;11.20;5.78;;;18.80;99.90;;;;;;5051855;28;20033;-70
2023/07/26 07:00:53;;;;;;;9.23;5.75;;;18.40;99.90;;;;;;5049956;28;20167;-70
2023/07/26 07:03:19;;;;;;;6.93;4.97;;;18.00;1.00;;;;;;5052017;28;20119;-69
2023/07/26 07:05:44;;;;;;;8.73;5.88;;;18.20;1.00;;;;;;5043524;28;20068;-70
2023/07/26 07:08:10;;;;;;;9.23;5.40;;;18.40;1.00;;;;;;5051191;28;20044;-70
2023/07/26 07:10:36;;;;;;;6.43;5.25;;;18.50;1.00;;;;;;5041173;28;20060;-71
2023/07/26 07:13:01;;;;;;;9.57;5.30;;;18.80;99.90;;;;;;5051111;28;20562;-69
2023/07/26 07:15:26;;;;;;;8.38;5.45;;;18.30;99.90;;;;;;5050377;28;20422;-71
2023/07/26 07:17:52;;;;;;;9.35;5.68;;;18.10;1.00;;;;;;5051238;28;20025;-71
2023/07/26 07:20:18;;;;;;;10.90;6.30;;;17.60;1.00;;;;;;5048854;28;20068;-68
2023/07/26 07:22:43;;;;;;;10.75;6.03;;;18.20;1.00;;;;;;5049694;28;20071;-69
2023/07/26 07:25:09;;;;;;;9.73;6.68;;;18.40;1.00;;;;;;5055556;28;20033;-71
2023/07/26 07:27:35;;;;;;;7.97;5.60;;;18.90;1.00;;;;;;5056339;28;20041;-70
2023/07/26 07:30:01;;;;;;;10.90;6.30;;;20.50;1.00;;;;;;5055244;28;20367;-70
2023/07/26 07:32:26;;;;;;;7.57;6.10;;;20.00;1.00;;;;;;5055477;28;20025;-71
2023/07/26 07:34:52;;;;;;;6.97;5.28;;;21.10;99.90;;;;;;5037514;28;20084;-72
2023/07/26 07:37:17;;;;;;;7.45;5.07;;;21.40;91.70;;;;;;5047674;28;20039;-73
2023/07/26 07:39:43;;;;;;;8.52;5.82;;;21.20;1.00;;;;;;5053032;28;20040;-76
2023/07/26 07:42:08;;;;;;;10.05;6.82;;;20.50;99.90;;;;;;5056379;28;20486;-78
2023/07/26 07:44:34;;;;;;;9.57;6.55;;;19.40;1.00;;;;;;5057203;28;20044;-77
2023/07/26 07:47:00;;;;;;;8.60;6.18;;;19.40;99.90;;;;;;5055592;28;20405;-72
2023/07/26 07:49:25;;;;;;;11.98;6.43;;;19.30;99.90;;;;;;5056302;28;20028;-70
2023/07/26 07:51:52;;;;;;;10.50;6.38;;;18.90;99.90;;;;;;5055759;28;20025;-69
2023/07/26 07:54:17;;;;;;;8.02;6.10;;;19.00;99.90;;;;;;5046957;28;20031;-70
2023/07/26 07:56:43;;;;;;;7.47;5.70;;;19.20;99.90;;;;;;5054295;28;20033;-70
2023/07/26 07:59:08;;;;;;;8.88;5.63;;;19.60;99.90;;;;;;5053244;28;20408;-69
2023/07/26 08:01:34;;;;;;;8.13;5.40;;;20.20;99.90;;;;;;5050127;28;20033;-71
2023/07/26 08:03:59;;;;;;;9.27;6.32;;;20.70;99.90;;;;;;5053564;28;20506;-70
2023/07/26 08:06:26;;;;;;;8.10;5.88;;;19.80;1.00;;;;;;5054924;28;20405;-69
2023/07/26 08:08:52;;;;;;;10.20;7.22;;;19.90;1.00;;;;;;5054937;28;20075;-70
2023/07/26 08:11:17;;;;;;;8.95;5.70;;;19.40;99.90;;;;;;5056692;28;20048;-70
2023/07/26 08:13:44;;;;;;;7.22;5.75;;;19.90;1.00;;;;;;5055741;28;20506;-71
2023/07/26 08:16:10;;;;;;;8.70;6.25;;;20.00;45.90;;;;;;5054148;28;20071;-71
2023/07/26 08:18:37;;;;;;;7.97;6.40;;;20.10;99.90;;;;;;5054491;28;20068;-69
2023/07/26 08:21:03;;;;;;;9.70;7.05;;;19.70;99.90;;;;;;5054195;28;20095;-69
2023/07/26 08:23:30;;;;;;;11.60;8.13;;;19.20;1.00;;;;;;5055648;28;20503;-70
2023/07/26 08:25:56;;;;;;;8.98;6.95;;;19.80;99.90;;;;;;5045389;28;20094;-70
2023/07/26 08:28:21;;;;;;;8.52;6.03;;;20.70;99.90;;;;;;5047713;28;20195;-69
2023/07/26 08:30:47;;;;;;;8.40;6.05;;;21.20;99.90;;;;;;5055170;28;20037;-70
2023/07/26 08:33:12;;;;;;;6.93;6.00;;;20.90;1.00;;;;;;5052597;28;20387;-70
2023/07/26 08:35:38;;;;;;;8.05;5.40;;;20.00;99.90;;;;;;5054935;28;20041;-70
2023/07/26 08:38:03;;;;;;;6.22;4.70;;;20.30;1.00;;;;;;5045298;28;20068;-69
2023/07/26 08:40:29;;;;;;;8.38;5.68;;;20.80;99.90;;;;;;5035788;28;20025;-70
2023/07/26 08:42:56;;;;;;;8.63;5.28;;;20.60;99.90;;;;;;5042384;28;20036;-69
2023/07/26 08:45:23;;;;;;;7.20;5.63;;;20.30;99.90;;;;;;5055689;28;20029;-71
2023/07/26 08:47:49;;;;;;;8.90;5.18;;;20.30;74.20;;;;;;5054662;28;20029;-70
2023/07/26 08:50:15;;;;;;;5.65;4.18;;;21.00;99.90;;;;;;5048702;28;20445;-70
2023/07/26 08:52:41;;;;;;;9.02;4.30;;;22.00;1.00;;;;;;5052504;28;20033;-70
2023/07/26 08:55:10;;;;;;;5.53;4.18;;;22.30;1.00;;;;;;5054153;28;20482;-72
2023/07/26 08:57:35;;;;;;;7.53;4.45;;;21.90;99.90;;;;;;5049901;28;20028;-69
2023/07/26 09:00:01;;;;;;;9.70;4.90;;;20.80;99.90;;;;;;5052948;28;20478;-70
2023/07/26 09:02:27;;;;;;;7.13;5.90;;;20.20;99.90;;;;;;5048427;28;20040;-69
2023/07/26 09:04:53;;;;;;;7.63;6.30;;;20.40;99.90;;;;;;5047721;28;20037;-70
2023/07/26 09:07:19;;;;;;;7.72;6.75;;;20.80;99.90;;;;;;5051785;28;20044;-70
2023/07/26 09:09:44;;;;;;;9.20;6.53;;;21.20;99.90;;;;;;5042662;28;20079;-71
2023/07/26 09:12:24;;;;;;;7.72;5.78;;;21.30;99.90;;;;;;5054898;28;20051;-72
2023/07/26 09:14:53;;;;;;;8.02;7.22;;;21.70;99.90;;;;;;5052777;28;20148;-71
2023/07/26 09:17:18;;;;;;;9.38;6.05;;;21.10;99.90;;;;;;5053980;28;20449;-70
2023/07/26 09:19:44;;;;;;;12.40;6.97;;;20.00;1.00;;;;;;5039904;28;20064;-70
2023/07/26 09:22:09;;;;;;;9.35;6.78;;;19.40;99.90;;;;;;5051814;28;20037;-70
2023/07/26 09:24:39;;;;;;;9.88;7.20;;;20.30;1.00;;;;;;5054991;28;20064;-70
2023/07/26 09:27:10;;;;;;;8.32;7.35;;;21.10;99.90;;;;;;5054032;28;20025;-69
2023/07/26 09:29:38;;;;;;;9.55;7.78;;;20.60;99.90;;;;;;5052526;28;20123;-69
2023/07/26 09:32:05;;;;;;;9.07;8.00;;;20.60;99.90;;;;;;5051517;28;20131;-71
2023/07/26 09:34:31;;;;;;;8.20;5.70;;;20.50;1.00;;;;;;5032788;28;20060;-71
2023/07/26 09:36:57;;;;;;;5.28;4.25;;;21.10;99.90;;;;;;5050831;28;20049;-71
2023/07/26 09:39:26;;;;;;;8.38;4.65;;;20.80;99.90;;;;;;5052345;28;20033;-71
2023/07/26 09:42:08;;;;;;;4.93;4.28;;;21.70;99.90;;;;;;5050055;28;20040;-71
2023/07/26 09:44:34;;;;;;;5.88;4.40;;;23.00;99.90;;;;;;5051695;28;20036;-71
2023/07/26 09:47:00;;;;;;;7.32;4.63;;;23.10;1.00;;;;;;5045120;28;20035;-71
2023/07/26 09:49:27;;;;;;;8.32;4.90;;;22.70;99.90;;;;;;5048640;28;20040;-71
2023/07/26 09:51:57;;;;;;;8.88;6.10;;;21.20;99.90;;;;;;5048503;28;20037;-71
2023/07/26 09:54:26;;;;;;;8.82;5.55;;;20.40;1.00;;;;;;5050062;28;20106;-71
2023/07/26 09:56:53;;;;;;;6.00;4.85;;;20.30;99.90;;;;;;5051876;28;20029;-72
2023/07/26 09:59:20;;;;;;;7.05;3.78;;;20.20;99.90;;;;;;5052248;28;20032;-70
2023/07/26 10:01:47;;;;;;;4.50;3.88;;;20.90;99.90;;;;;;5052996;28;20117;-70
2023/07/26 10:04:16;;;;;;;5.72;4.47;;;21.60;99.90;;;;;;5040530;28;20551;-71
2023/07/26 10:06:43;;;;;;;8.10;4.30;;;21.40;99.90;;;;;;5059631;28;20029;-72
2023/07/26 10:09:12;;;;;;;6.03;4.43;;;21.10;95.80;;;;;;5052251;28;20035;-72
2023/07/26 10:11:40;;;;;;;5.20;4.53;;;20.60;99.90;;;;;;5052816;28;20056;-72
2023/07/26 10:14:06;;;;;;;12.25;6.10;;;21.60;99.90;;;;;;5052872;28;20021;-71
2023/07/26 10:16:32;;;;;;;6.50;5.07;;;21.80;60.80;;;;;;5051359;28;20017;-72
2023/07/26 10:18:59;;;;;;;6.07;5.47;;;22.50;99.90;;;;;;5051604;28;20044;-73
2023/07/26 10:21:27;;;;;;;6.38;5.15;;;22.80;1.00;;;;;;5049676;28;20079;-72
2023/07/26 10:23:55;;;;;;;7.63;5.68;;;21.90;11.90;;;;;;5046760;28;20033;-72
2023/07/26 10:26:21;;;;;;;6.10;3.90;;;21.50;99.90;;;;;;5053015;28;20475;-72
2023/07/26 10:28:47;;;;;;;11.23;4.60;;;22.10;62.60;;;;;;5053276;28;20033;-71
2023/07/26 10:31:13;;;;;;;10.32;5.10;;;23.30;41.70;;;;;;5039006;28;20033;-72
2023/07/26 10:33:46;;;;;;;11.32;6.07;;;23.20;99.90;;;;;;5039993;28;20032;-71
2023/07/26 10:36:12;;;;;;;11.43;5.90;;;21.30;99.90;;;;;;5052229;28;20453;-72
2023/07/26 10:38:40;;;;;;;6.00;4.55;;;20.40;99.90;;;;;;5045911;28;20487;-71
2023/07/26 10:41:20;;;;;;;5.20;3.17;;;19.90;1.00;;;;;;5046953;28;20094;-71
2023/07/26 10:43:49;;;;;;;4.25;2.67;;;19.30;99.90;;;;;;5048960;28;20043;-71
2023/07/26 10:46:15;;;;;;;3.30;2.67;;;18.60;99.90;;;;;;5051237;28;20052;-71
2023/07/26 10:48:41;;;;;;;6.07;1.80;;;18.00;1.00;;;;;;5049684;28;20017;-71
2023/07/26 10:51:31;;;;;;;6.88;1.73;;;17.60;1.00;;;;;;5049233;28;20108;-71
2023/07/26 10:53:58;;;;;;;9.30;1.50;;;17.20;1.00;;;;;;5048285;28;20457;-69
2023/07/26 10:56:30;;;;;;;7.63;2.08;;;17.10;99.90;;;;;;5050864;28;20028;-69
2023/07/26 10:59:17;;;;;;;4.63;2.10;;;17.10;1.00;;;;;;5047914;28;20045;-69
2023/07/26 11:01:44;;;;;;;6.13;2.25;;;17.20;99.90;;;;;;5048665;28;20025;-69
2023/07/26 11:04:12;;;;;;;2.90;1.55;;;17.20;99.90;;;;;;5052186;28;20033;-69
2023/07/26 11:06:57;;;;;;;2.15;1.60;;;17.50;1.00;;;;;;5049901;28;20064;-70
2023/07/26 11:09:27;;;;;;;1.98;1.58;;;18.50;99.90;;;;;;5051549;28;20040;-68
2023/07/26 11:11:59;;;;;;;1.55;1.45;;;18.60;1.00;;;;;;5053001;28;20120;-70
2023/07/26 11:14:26;;;;;;;5.03;1.70;;;19.00;99.90;;;;;;5052644;28;20431;-71
2023/07/26 11:16:53;;;;;;;1.73;1.40;;;18.90;99.90;;;;;;5051689;28;20033;-69
2023/07/26 11:19:19;;;;;;;2.55;1.25;;;19.20;99.90;;;;;;5049362;28;20053;-70
2023/07/26 11:21:45;;;;;;;3.80;1.23;;;18.80;37.60;;;;;;5052206;28;20071;-70
2023/07/26 11:24:10;;;;;;;2.53;1.50;;;18.90;1.00;;;;;;5051984;28;20064;-70
2023/07/26 11:26:42;;;;;;;1.73;1.40;;;19.30;99.90;;;;;;5052858;28;20033;-70
2023/07/26 11:29:08;;;;;;;1.30;1.20;;;19.10;1.00;;;;;;5051686;28;20036;-70
2023/07/26 11:31:34;;;;;;;1.88;1.33;;;19.10;99.90;;;;;;5048664;28;20033;-69
2023/07/26 11:34:14;;;;;;;3.03;1.52;;;19.70;1.00;;;;;;5050916;28;20075;-70
2023/07/26 11:36:40;;;;;;;4.55;1.40;;;19.50;99.90;;;;;;5055952;28;20071;-69
2023/07/26 11:39:06;;;;;;;1.73;1.58;;;19.40;1.00;;;;;;5051602;28;20041;-71
2023/07/26 11:41:32;;;;;;;2.88;1.42;;;19.00;1.00;;;;;;5051523;28;20033;-68
2023/07/26 11:43:58;;;;;;;1.85;1.40;;;19.20;1.00;;;;;;5051248;28;20425;-69
2023/07/26 11:46:26;;;;;;;2.90;1.50;;;19.60;99.90;;;;;;5053909;28;20133;-69
2023/07/26 11:48:53;;;;;;;2.72;1.45;;;19.60;99.90;;;;;;5049046;28;20279;-69
2023/07/26 11:51:19;;;;;;;1.90;1.70;;;19.20;99.90;;;;;;5052683;28;20078;-71
2023/07/26 11:53:46;;;;;;;1.85;1.63;;;19.60;99.90;;;;;;5056070;28;20028;-69
2023/07/26 11:56:11;;;;;;;2.45;1.80;;;19.50;1.00;;;;;;5052344;28;20033;-69
2023/07/26 11:58:37;;;;;;;2.95;2.00;;;19.20;99.90;;;;;;5049920;28;20382;-69
2023/07/26 12:01:04;;;;;;;2.08;1.73;;;19.10;99.90;;;;;;5040271;28;20029;-68
2023/07/26 12:03:30;;;;;;;2.63;1.92;;;19.60;99.90;;;;;;5045869;28;20068;-70
2023/07/26 12:05:56;;;;;;;2.55;2.10;;;19.20;99.90;;;;;;5045100;28;20075;-71
2023/07/26 12:08:22;;;;;;;3.22;2.47;;;19.50;99.90;;;;;;5052229;28;20116;-70
2023/07/26 12:10:48;;;;;;;3.20;2.30;;;19.40;1.00;;;;;;5047378;28;20025;-70
2023/07/26 12:13:19;;;;;;;3.78;2.40;;;19.90;1.00;;;;;;5054416;28;20116;-70
2023/07/26 12:15:53;;;;;;;2.53;2.33;;;19.90;99.90;;;;;;5051499;28;20022;-69
2023/07/26 12:18:21;;;;;;;4.88;2.72;;;20.20;1.00;;;;;;5053112;28;20483;-69
2023/07/26 12:21:03;;;;;;;4.60;3.10;;;20.00;1.00;;;;;;5054971;28;20028;-69
2023/07/26 12:23:49;;;;;;;4.45;2.83;;;19.80;99.90;;;;;;5055766;28;20082;-69
2023/07/26 12:26:15;;;;;;;4.35;2.40;;;19.60;99.90;;;;;;5052977;28;20461;-69
2023/07/26 12:28:42;;;;;;;5.75;2.88;;;19.70;99.90;;;;;;5052889;28;20033;-70
2023/07/26 12:31:07;;;;;;;4.07;2.40;;;19.70;4.60;;;;;;5051893;28;20405;-68
2023/07/26 12:33:33;;;;;;;5.68;3.75;;;19.90;1.00;;;;;;5054167;28;20013;-69
2023/07/26 12:36:00;;;;;;;4.90;3.20;;;19.80;1.00;;;;;;5044212;28;20493;-70
2023/07/26 12:38:26;;;;;;;4.35;2.97;;;20.00;91.00;;;;;;5054484;28;20037;-69
2023/07/26 12:40:52;;;;;;;6.53;3.50;;;20.10;1.00;;;;;;5051221;28;20025;-69
2023/07/26 12:43:29;;;;;;;4.65;3.35;;;20.10;99.90;;;;;;5053335;28;20112;-69
2023/07/26 12:45:57;;;;;;;5.32;3.70;;;20.20;99.90;;;;;;5053928;28;20482;-69